Huvudsida
METAR-TAF:

METAR-TAF

Flygplatser :

Forūdgāh-e Kermān

Kerman, Iran

latitud: 30-15N, longitud: 056-58E, höjd: 1748 m

Aktuellt väderrapport

Denna rapport gjordes för 52 minuter sedan, klockan 22:00 UTC
Vind 4 kt från syd/sydost
Temperatur -2°C
Fuktighet 5%
Tryck 1021 hPa
Sikt 10 km eller mer
Inga moln under 1 500 m eller inga cumulonimbus

METAR: OIKK 152200Z 15004KT CAVOK M02/M37 Q1020 A3014

Tid: 02:22 (22:52 UTC)

Väderprognos

Denna rapport gjordes för 5 timmar och 2 minuter sedan, klockan 17:50 UTC
Prognos gäller från 15 kl. 18 UTC till 16 kl. 24 UTC
Vind 8 kt från nord/nordost
Sikt: 8000 m
Temporärt
från 16 kl. 09 UTC till 16 kl. 15 UTC
Få moln på en höjd av 3500 ft, Högtornande cumulus.
Spridda moln på en höjd av 4000 ft
Spridda moln på en höjd av 10000 ft

TAF: OIKK 151750Z 1518/1624 03008KT 8000 NSC TEMPO 1609/1615 FEW035TCU SCT040 SCT100

Aktuella väderrapporter och prognoser från 4000 flygplatser (METAR- och TAF-rapporter).

De tillgängliga stationerna syns som gula och röda prickar på kartan.

För musen över prickarna för att se namnen på stationerna.

Klicka sedan för att få väderrapporter och prognoser.

För att ändra kartan: Klicka på de gröna knapparna med ett svart kors på för att zooma in; den gröna knappen med ett streck på för att zooma ut; eller på de gröna pilarna för angränsande kartor.


METAR-TAF: